Morning Camilla — H3LJ — position and weather

sailwx.info

Track history (hours):
 
Tides and Currents Weather Stations Pressure Air Temp Water Temp Dewpoint Dewpoint Depression Visibility Wind Speed Wind Dir Waves Ship Positions

Morning Camilla

Last reported at 2018-Jun-19 01:49 UTC. Time now 2018-Jun-19 17:43 UTC.
Position N 34°60' E 139°42'.

Length 199 m; draft 8.9 m.

Type: Cargo ship. MMSI: 370299000.

Date/timePositionNaut miles runAvg speedWind from/ knotsBaromVisibWave heightAir tempDewpointWater temp
2018-Jun-19 01:49N 34°60' E 139°42'615.9
2018-Jun-19 01:25N 35°06' E 139°44'613.5
2018-Jun-19 01:00N 35°11' E 139°46'510.9
2018-Jun-19 00:30N 35°17' E 139°45'611.5
2018-Jun-19 00:00N 35°22' E 139°42'611.3
2018-Jun-18 23:30N 35°26' E 139°47'612.4
2018-Jun-18 23:00N 35°30' E 139°52'611.9
2018-Jun-18 22:30N 35°34' E 139°58'5 9.9
2018-Jun-18 21:59N 35°39' E 139°59'1 0.0
2018-Jun-17 22:20N 35°40' E 140°00'1 1.7
2018-Jun-17 22:01N 35°40' E 139°59'4 7.6
2018-Jun-17 21:30N 35°36' E 139°59'4 9.0
2018-Jun-17 21:00N 35°32' E 139°56'4 7.3
2018-Jun-17 20:30N 35°30' E 139°53'612.3
2018-Jun-17 20:01N 35°25' E 139°48'612.8
2018-Jun-17 19:30N 35°19' E 139°44'612.5
2018-Jun-17 19:00N 35°14' E 139°47'5 9.7
2018-Jun-17 18:31N 35°09' E 139°47'4 7.4
2018-Jun-17 18:00N 35°05' E 139°46'5 8.8
2018-Jun-17 17:29N 35°02' E 139°42'5 9.3
2018-Jun-17 16:56N 34°57' E 139°42'  
2018-Jun-15 11:07N 35°04' E 139°43'413.5
2018-Jun-15 10:51N 35°08' E 139°44'411.3
2018-Jun-15 10:30N 35°11' E 139°46'611.5
2018-Jun-15 10:00N 35°17' E 139°45'612.6
2018-Jun-15 09:30N 35°23' E 139°42'510.1
2018-Jun-15 09:00N 35°28' E 139°42'1 1.9
2018-Jun-15 08:29N 35°28' E 139°41'0 0.0
2018-Jun-15 07:59N 35°28' E 139°41'0 0.0
2018-Jun-15 07:29N 35°28' E 139°41'0 0.0
2018-Jun-15 06:59N 35°28' E 139°41'0 0.0
2018-Jun-15 06:23N 35°28' E 139°41'0 0.0
2018-Jun-15 05:59N 35°28' E 139°41'0 0.0
2018-Jun-15 05:29N 35°28' E 139°41'0 0.0
2018-Jun-15 04:56N 35°28' E 139°41'0 0.0
2018-Jun-15 04:29N 35°28' E 139°41'0 0.0
2018-Jun-15 03:59N 35°28' E 139°41'0 0.0
2018-Jun-15 03:29N 35°28' E 139°41'0 0.0
2018-Jun-15 02:59N 35°28' E 139°41'0 0.0
2018-Jun-15 02:29N 35°28' E 139°41'0 0.0
2018-Jun-15 01:59N 35°28' E 139°41'0 0.0
2018-Jun-15 01:26N 35°28' E 139°41'0 0.0
2018-Jun-15 00:59N 35°28' E 139°41'0 0.0
2018-Jun-15 00:29N 35°28' E 139°41'0 0.0
2018-Jun-14 23:56N 35°28' E 139°41'0 0.0
2018-Jun-14 23:29N 35°28' E 139°41'0 0.0
2018-Jun-14 22:59N 35°28' E 139°41'0 0.0
2018-Jun-14 22:29N 35°28' E 139°41'0 0.3
2018-Jun-14 22:00N 35°28' E 139°41'1 2.1
2018-Jun-14 21:30N 35°28' E 139°42'510.0
2018-Jun-14 21:00N 35°24' E 139°46'611.7
2018-Jun-14 20:30N 35°19' E 139°44'611.8
2018-Jun-14 19:59N 35°13' E 139°47'5 9.8
2018-Jun-14 19:30N 35°08' E 139°47'4 8.0
2018-Jun-14 19:00N 35°05' E 139°46'4 8.7
2018-Jun-14 18:30N 35°01' E 139°42'7 9.4
2018-Jun-14 17:46N 34°55' E 139°40'  
Track history (hours):
 
Tides and Currents Weather Stations Pressure Air Temp Water Temp Dewpoint Dewpoint Depression Visibility Wind Speed Wind Dir Waves Ship Positions

Morning Camilla

Last reported at 2018-Jun-19 01:49 UTC. Time now 2018-Jun-19 17:43 UTC.
Position N 34°60' E 139°42'.

Length 199 m; draft 8.9 m.

Type: Cargo ship. MMSI: 370299000.

Date/timePositionNaut miles runAvg speedWind from/ knotsBaromVisibWave heightAir tempDewpointWater temp
2018-Jun-19 01:49N 34°60' E 139°42'615.9
2018-Jun-19 01:25N 35°06' E 139°44'613.5
2018-Jun-19 01:00N 35°11' E 139°46'510.9
2018-Jun-19 00:30N 35°17' E 139°45'611.5
2018-Jun-19 00:00N 35°22' E 139°42'611.3
2018-Jun-18 23:30N 35°26' E 139°47'612.4
2018-Jun-18 23:00N 35°30' E 139°52'611.9
2018-Jun-18 22:30N 35°34' E 139°58'5 9.9
2018-Jun-18 21:59N 35°39' E 139°59'1 0.0
2018-Jun-17 22:20N 35°40' E 140°00'1 1.7
2018-Jun-17 22:01N 35°40' E 139°59'4 7.6
2018-Jun-17 21:30N 35°36' E 139°59'4 9.0
2018-Jun-17 21:00N 35°32' E 139°56'4 7.3
2018-Jun-17 20:30N 35°30' E 139°53'612.3
2018-Jun-17 20:01N 35°25' E 139°48'612.8
2018-Jun-17 19:30N 35°19' E 139°44'612.5
2018-Jun-17 19:00N 35°14' E 139°47'5 9.7
2018-Jun-17 18:31N 35°09' E 139°47'4 7.4
2018-Jun-17 18:00N 35°05' E 139°46'5 8.8
2018-Jun-17 17:29N 35°02' E 139°42'5 9.3
2018-Jun-17 16:56N 34°57' E 139°42'  
2018-Jun-15 11:07N 35°04' E 139°43'413.5
2018-Jun-15 10:51N 35°08' E 139°44'411.3
2018-Jun-15 10:30N 35°11' E 139°46'611.5
2018-Jun-15 10:00N 35°17' E 139°45'612.6
2018-Jun-15 09:30N 35°23' E 139°42'510.1
2018-Jun-15 09:00N 35°28' E 139°42'1 1.9
2018-Jun-15 08:29N 35°28' E 139°41'0 0.0
2018-Jun-15 07:59N 35°28' E 139°41'0 0.0
2018-Jun-15 07:29N 35°28' E 139°41'0 0.0
2018-Jun-15 06:59N 35°28' E 139°41'0 0.0
2018-Jun-15 06:23N 35°28' E 139°41'0 0.0
2018-Jun-15 05:59N 35°28' E 139°41'0 0.0
2018-Jun-15 05:29N 35°28' E 139°41'0 0.0
2018-Jun-15 04:56N 35°28' E 139°41'0 0.0
2018-Jun-15 04:29N 35°28' E 139°41'0 0.0
2018-Jun-15 03:59N 35°28' E 139°41'0 0.0
2018-Jun-15 03:29N 35°28' E 139°41'0 0.0
2018-Jun-15 02:59N 35°28' E 139°41'0 0.0
2018-Jun-15 02:29N 35°28' E 139°41'0 0.0
2018-Jun-15 01:59N 35°28' E 139°41'0 0.0
2018-Jun-15 01:26N 35°28' E 139°41'0 0.0
2018-Jun-15 00:59N 35°28' E 139°41'0 0.0
2018-Jun-15 00:29N 35°28' E 139°41'0 0.0
2018-Jun-14 23:56N 35°28' E 139°41'0 0.0
2018-Jun-14 23:29N 35°28' E 139°41'0 0.0
2018-Jun-14 22:59N 35°28' E 139°41'0 0.0
2018-Jun-14 22:29N 35°28' E 139°41'0 0.3
2018-Jun-14 22:00N 35°28' E 139°41'1 2.1
2018-Jun-14 21:30N 35°28' E 139°42'510.0
2018-Jun-14 21:00N 35°24' E 139°46'611.7
2018-Jun-14 20:30N 35°19' E 139°44'611.8
2018-Jun-14 19:59N 35°13' E 139°47'5 9.8
2018-Jun-14 19:30N 35°08' E 139°47'4 8.0
2018-Jun-14 19:00N 35°05' E 139°46'4 8.7
2018-Jun-14 18:30N 35°01' E 139°42'7 9.4
2018-Jun-14 17:46N 34°55' E 139°40'  

Dump ship's entire track history